Lakes of Four Seasons, Indiana
Current Conditions -  °F | °C
As of 9:35 PM on Monday 26 Jan 2015 (Local Time) from KIGQ Reporting Station
Unknown Precip Unknown Precip  
Wind Chill: 26°   Ceiling: 700
Heat Index: 26°   Visibility: 5mi
Dew Point: 25°   Wind: 3mph
Humidity: 95%   Direction: 140°SE
Pressure: 29.92"   Gusts: NA
Location:  41.4039°N, 87.3294°W
Report Text: KIGQ 270335Z AUTO 14003KT 5SM UP OVC007 M03/M04 A2992 RMK AO2 T10321039
Loading
Personal Weather Stations






























Interactive Weather Map New forecast layout! Learn more

10-Day Weather Forecast

Advertisements
Track Severe Weather on mobile